sensor_id;sensor_type;location;lat;lon;timestamp;P1;durP1;ratioP1;P2;durP2;ratioP2
24637;SDS011;12773;50.162;8.548;2024-01-15T00:02:10;45.73;;;14.00;;
24637;SDS011;12773;50.162;8.548;2024-01-15T00:04:58;42.27;;;12.40;;
24637;SDS011;12773;50.162;8.548;2024-01-15T00:07:45;47.50;;;14.13;;
24637;SDS011;12773;50.162;8.548;2024-01-15T00:10:32;44.38;;;14.73;;
24637;SDS011;12773;50.162;8.548;2024-01-15T00:13:20;49.35;;;14.20;;
24637;SDS011;12773;50.162;8.548;2024-01-15T00:16:07;47.38;;;13.88;;
24637;SDS011;12773;50.162;8.548;2024-01-15T00:18:54;52.05;;;13.60;;
24637;SDS011;12773;50.162;8.548;2024-01-15T00:21:41;47.98;;;15.13;;
24637;SDS011;12773;50.162;8.548;2024-01-15T00:24:29;42.75;;;12.88;;
24637;SDS011;12773;50.162;8.548;2024-01-15T00:27:16;44.08;;;13.93;;
24637;SDS011;12773;50.162;8.548;2024-01-15T00:30:04;38.05;;;13.20;;
24637;SDS011;12773;50.162;8.548;2024-01-15T00:32:52;51.33;;;15.28;;
24637;SDS011;12773;50.162;8.548;2024-01-15T00:35:40;51.95;;;16.10;;
24637;SDS011;12773;50.162;8.548;2024-01-15T00:38:28;46.80;;;13.98;;
24637;SDS011;12773;50.162;8.548;2024-01-15T00:41:15;47.40;;;14.85;;
24637;SDS011;12773;50.162;8.548;2024-01-15T00:44:04;43.75;;;14.93;;
24637;SDS011;12773;50.162;8.548;2024-01-15T00:46:51;46.95;;;14.45;;
24637;SDS011;12773;50.162;8.548;2024-01-15T00:49:38;41.98;;;13.70;;
24637;SDS011;12773;50.162;8.548;2024-01-15T00:52:26;51.33;;;15.45;;
24637;SDS011;12773;50.162;8.548;2024-01-15T00:55:13;46.88;;;14.50;;
24637;SDS011;12773;50.162;8.548;2024-01-15T00:58:01;53.28;;;15.15;;
24637;SDS011;12773;50.162;8.548;2024-01-15T01:00:48;45.48;;;14.65;;
24637;SDS011;12773;50.162;8.548;2024-01-15T01:03:35;45.88;;;14.13;;
24637;SDS011;12773;50.162;8.548;2024-01-15T01:06:23;47.35;;;14.30;;
24637;SDS011;12773;50.162;8.548;2024-01-15T01:09:11;52.08;;;14.80;;
24637;SDS011;12773;50.162;8.548;2024-01-15T01:11:59;55.75;;;15.43;;
24637;SDS011;12773;50.162;8.548;2024-01-15T01:14:46;51.08;;;15.38;;
24637;SDS011;12773;50.162;8.548;2024-01-15T01:17:34;43.28;;;13.25;;
24637;SDS011;12773;50.162;8.548;2024-01-15T01:20:21;48.48;;;15.75;;
24637;SDS011;12773;50.162;8.548;2024-01-15T01:23:09;51.13;;;14.43;;
24637;SDS011;12773;50.162;8.548;2024-01-15T01:25:57;44.65;;;13.68;;
24637;SDS011;12773;50.162;8.548;2024-01-15T01:28:44;44.45;;;14.18;;
24637;SDS011;12773;50.162;8.548;2024-01-15T01:31:31;50.83;;;14.70;;
24637;SDS011;12773;50.162;8.548;2024-01-15T01:34:19;50.10;;;15.18;;
24637;SDS011;12773;50.162;8.548;2024-01-15T01:37:06;54.80;;;15.32;;
24637;SDS011;12773;50.162;8.548;2024-01-15T01:40:00;49.67;;;15.25;;
24637;SDS011;12773;50.162;8.548;2024-01-15T01:42:48;53.98;;;15.55;;
24637;SDS011;12773;50.162;8.548;2024-01-15T01:45:35;48.55;;;14.43;;
24637;SDS011;12773;50.162;8.548;2024-01-15T01:48:23;58.08;;;16.30;;
24637;SDS011;12773;50.162;8.548;2024-01-15T01:51:14;50.52;;;15.30;;
24637;SDS011;12773;50.162;8.548;2024-01-15T01:54:02;51.92;;;15.32;;
24637;SDS011;12773;50.162;8.548;2024-01-15T01:56:51;53.00;;;14.15;;
24637;SDS011;12773;50.162;8.548;2024-01-15T01:59:39;53.30;;;14.75;;
24637;SDS011;12773;50.162;8.548;2024-01-15T02:02:26;67.90;;;15.90;;
24637;SDS011;12773;50.162;8.548;2024-01-15T02:05:14;49.60;;;14.68;;
24637;SDS011;12773;50.162;8.548;2024-01-15T02:08:04;49.27;;;14.45;;
24637;SDS011;12773;50.162;8.548;2024-01-15T02:10:52;56.48;;;15.88;;
24637;SDS011;12773;50.162;8.548;2024-01-15T02:13:40;50.45;;;15.25;;
24637;SDS011;12773;50.162;8.548;2024-01-15T02:16:27;52.40;;;15.53;;
24637;SDS011;12773;50.162;8.548;2024-01-15T02:19:15;50.63;;;15.50;;
24637;SDS011;12773;50.162;8.548;2024-01-15T02:22:04;56.33;;;14.80;;
24637;SDS011;12773;50.162;8.548;2024-01-15T02:24:51;47.25;;;14.20;;
24637;SDS011;12773;50.162;8.548;2024-01-15T02:27:39;58.23;;;16.67;;
24637;SDS011;12773;50.162;8.548;2024-01-15T02:30:27;47.48;;;14.83;;
24637;SDS011;12773;50.162;8.548;2024-01-15T02:33:16;43.58;;;13.00;;
24637;SDS011;12773;50.162;8.548;2024-01-15T02:36:04;49.70;;;15.25;;
24637;SDS011;12773;50.162;8.548;2024-01-15T02:38:52;48.45;;;14.98;;
24637;SDS011;12773;50.162;8.548;2024-01-15T02:41:39;48.35;;;14.23;;
24637;SDS011;12773;50.162;8.548;2024-01-15T02:44:27;53.02;;;14.73;;
24637;SDS011;12773;50.162;8.548;2024-01-15T02:47:14;49.65;;;14.70;;
24637;SDS011;12773;50.162;8.548;2024-01-15T02:50:02;50.55;;;14.85;;
24637;SDS011;12773;50.162;8.548;2024-01-15T02:52:49;46.00;;;13.90;;
24637;SDS011;12773;50.162;8.548;2024-01-15T02:55:37;44.23;;;13.45;;
24637;SDS011;12773;50.162;8.548;2024-01-15T02:58:24;47.40;;;15.48;;
24637;SDS011;12773;50.162;8.548;2024-01-15T03:01:12;47.25;;;14.20;;
24637;SDS011;12773;50.162;8.548;2024-01-15T03:03:59;50.03;;;13.13;;
24637;SDS011;12773;50.162;8.548;2024-01-15T03:06:46;53.17;;;14.13;;
24637;SDS011;12773;50.162;8.548;2024-01-15T03:09:34;48.87;;;13.90;;
24637;SDS011;12773;50.162;8.548;2024-01-15T03:12:22;41.53;;;13.58;;
24637;SDS011;12773;50.162;8.548;2024-01-15T03:15:10;48.92;;;13.98;;
24637;SDS011;12773;50.162;8.548;2024-01-15T03:17:57;42.38;;;13.60;;
24637;SDS011;12773;50.162;8.548;2024-01-15T03:20:44;45.30;;;14.28;;
24637;SDS011;12773;50.162;8.548;2024-01-15T03:23:33;49.40;;;13.72;;
24637;SDS011;12773;50.162;8.548;2024-01-15T03:26:21;46.20;;;14.63;;
24637;SDS011;12773;50.162;8.548;2024-01-15T03:29:09;49.15;;;13.70;;
24637;SDS011;12773;50.162;8.548;2024-01-15T03:31:56;54.65;;;14.50;;
24637;SDS011;12773;50.162;8.548;2024-01-15T03:34:44;43.05;;;13.58;;
24637;SDS011;12773;50.162;8.548;2024-01-15T03:37:33;45.52;;;13.10;;
24637;SDS011;12773;50.162;8.548;2024-01-15T03:40:21;45.35;;;14.65;;
24637;SDS011;12773;50.162;8.548;2024-01-15T03:43:08;44.08;;;13.05;;
24637;SDS011;12773;50.162;8.548;2024-01-15T03:45:56;44.40;;;13.95;;
24637;SDS011;12773;50.162;8.548;2024-01-15T03:48:43;49.67;;;14.43;;
24637;SDS011;12773;50.162;8.548;2024-01-15T03:51:32;40.48;;;13.35;;
24637;SDS011;12773;50.162;8.548;2024-01-15T03:54:19;42.67;;;13.18;;
24637;SDS011;12773;50.162;8.548;2024-01-15T03:57:06;41.23;;;13.45;;
24637;SDS011;12773;50.162;8.548;2024-01-15T03:59:53;49.63;;;13.72;;
24637;SDS011;12773;50.162;8.548;2024-01-15T04:02:41;47.00;;;14.40;;
24637;SDS011;12773;50.162;8.548;2024-01-15T04:05:28;50.17;;;14.13;;
24637;SDS011;12773;50.162;8.548;2024-01-15T04:08:16;54.20;;;14.73;;
24637;SDS011;12773;50.162;8.548;2024-01-15T04:11:04;54.27;;;14.58;;
24637;SDS011;12773;50.162;8.548;2024-01-15T04:13:52;45.00;;;12.90;;
24637;SDS011;12773;50.162;8.548;2024-01-15T04:16:39;44.58;;;14.13;;
24637;SDS011;12773;50.162;8.548;2024-01-15T04:19:27;48.40;;;14.00;;
24637;SDS011;12773;50.162;8.548;2024-01-15T04:22:15;46.42;;;14.03;;
24637;SDS011;12773;50.162;8.548;2024-01-15T04:25:02;41.77;;;13.83;;
24637;SDS011;12773;50.162;8.548;2024-01-15T04:27:50;43.60;;;12.90;;
24637;SDS011;12773;50.162;8.548;2024-01-15T04:30:37;39.95;;;12.10;;
24637;SDS011;12773;50.162;8.548;2024-01-15T04:33:25;45.30;;;13.10;;
24637;SDS011;12773;50.162;8.548;2024-01-15T04:36:12;43.38;;;12.88;;
24637;SDS011;12773;50.162;8.548;2024-01-15T04:39:00;43.20;;;13.43;;
24637;SDS011;12773;50.162;8.548;2024-01-15T04:41:47;46.13;;;13.30;;
24637;SDS011;12773;50.162;8.548;2024-01-15T04:44:35;49.15;;;12.58;;
24637;SDS011;12773;50.162;8.548;2024-01-15T04:47:22;40.15;;;12.60;;
24637;SDS011;12773;50.162;8.548;2024-01-15T04:50:10;42.10;;;12.40;;
24637;SDS011;12773;50.162;8.548;2024-01-15T04:52:58;39.88;;;12.00;;
24637;SDS011;12773;50.162;8.548;2024-01-15T04:55:45;37.15;;;10.98;;
24637;SDS011;12773;50.162;8.548;2024-01-15T04:58:33;43.83;;;12.30;;
24637;SDS011;12773;50.162;8.548;2024-01-15T05:01:20;43.60;;;13.65;;
24637;SDS011;12773;50.162;8.548;2024-01-15T05:04:07;34.80;;;11.28;;
24637;SDS011;12773;50.162;8.548;2024-01-15T05:06:55;36.20;;;11.35;;
24637;SDS011;12773;50.162;8.548;2024-01-15T05:09:43;36.40;;;11.45;;
24637;SDS011;12773;50.162;8.548;2024-01-15T05:12:31;36.73;;;12.13;;
24637;SDS011;12773;50.162;8.548;2024-01-15T05:15:18;38.92;;;12.23;;
24637;SDS011;12773;50.162;8.548;2024-01-15T05:18:06;40.10;;;11.20;;
24637;SDS011;12773;50.162;8.548;2024-01-15T05:20:54;42.55;;;12.28;;
24637;SDS011;12773;50.162;8.548;2024-01-15T05:23:41;37.23;;;11.38;;
24637;SDS011;12773;50.162;8.548;2024-01-15T05:26:29;37.95;;;11.43;;
24637;SDS011;12773;50.162;8.548;2024-01-15T05:29:16;39.75;;;12.25;;
24637;SDS011;12773;50.162;8.548;2024-01-15T05:32:04;33.23;;;10.95;;
24637;SDS011;12773;50.162;8.548;2024-01-15T05:34:51;38.60;;;11.90;;
24637;SDS011;12773;50.162;8.548;2024-01-15T05:37:43;50.10;;;12.73;;
24637;SDS011;12773;50.162;8.548;2024-01-15T05:40:29;42.65;;;12.07;;
24637;SDS011;12773;50.162;8.548;2024-01-15T05:43:17;41.83;;;11.55;;
24637;SDS011;12773;50.162;8.548;2024-01-15T05:46:04;39.73;;;12.82;;
24637;SDS011;12773;50.162;8.548;2024-01-15T05:48:52;38.10;;;11.83;;
24637;SDS011;12773;50.162;8.548;2024-01-15T05:51:39;45.35;;;12.58;;
24637;SDS011;12773;50.162;8.548;2024-01-15T05:54:27;38.90;;;12.28;;
24637;SDS011;12773;50.162;8.548;2024-01-15T05:57:14;41.40;;;13.22;;
24637;SDS011;12773;50.162;8.548;2024-01-15T06:00:02;48.45;;;14.38;;
24637;SDS011;12773;50.162;8.548;2024-01-15T06:02:51;50.50;;;13.22;;
24637;SDS011;12773;50.162;8.548;2024-01-15T06:05:38;41.73;;;12.37;;
24637;SDS011;12773;50.162;8.548;2024-01-15T06:08:25;44.93;;;13.13;;
24637;SDS011;12773;50.162;8.548;2024-01-15T06:11:13;38.17;;;11.73;;
24637;SDS011;12773;50.162;8.548;2024-01-15T06:14:00;43.17;;;13.18;;
24637;SDS011;12773;50.162;8.548;2024-01-15T06:16:48;41.73;;;12.13;;
24637;SDS011;12773;50.162;8.548;2024-01-15T06:19:35;38.55;;;13.48;;
24637;SDS011;12773;50.162;8.548;2024-01-15T06:22:23;43.38;;;13.38;;
24637;SDS011;12773;50.162;8.548;2024-01-15T06:25:11;50.35;;;13.90;;
24637;SDS011;12773;50.162;8.548;2024-01-15T06:27:58;48.58;;;14.15;;
24637;SDS011;12773;50.162;8.548;2024-01-15T06:30:46;45.52;;;13.28;;
24637;SDS011;12773;50.162;8.548;2024-01-15T06:33:33;46.90;;;14.38;;
24637;SDS011;12773;50.162;8.548;2024-01-15T06:36:21;41.00;;;12.58;;
24637;SDS011;12773;50.162;8.548;2024-01-15T06:39:08;44.77;;;13.72;;
24637;SDS011;12773;50.162;8.548;2024-01-15T06:41:55;57.88;;;14.30;;
24637;SDS011;12773;50.162;8.548;2024-01-15T06:44:43;47.98;;;13.78;;
24637;SDS011;12773;50.162;8.548;2024-01-15T06:47:30;41.02;;;13.55;;
24637;SDS011;12773;50.162;8.548;2024-01-15T06:50:18;49.83;;;15.20;;
24637;SDS011;12773;50.162;8.548;2024-01-15T06:53:05;53.02;;;14.43;;
24637;SDS011;12773;50.162;8.548;2024-01-15T06:55:53;53.52;;;15.38;;
24637;SDS011;12773;50.162;8.548;2024-01-15T06:58:40;48.68;;;15.18;;
24637;SDS011;12773;50.162;8.548;2024-01-15T07:01:27;49.90;;;14.20;;
24637;SDS011;12773;50.162;8.548;2024-01-15T07:04:15;50.75;;;15.20;;
24637;SDS011;12773;50.162;8.548;2024-01-15T07:07:03;50.80;;;15.35;;
24637;SDS011;12773;50.162;8.548;2024-01-15T07:09:51;48.38;;;13.83;;
24637;SDS011;12773;50.162;8.548;2024-01-15T07:12:38;47.78;;;14.68;;
24637;SDS011;12773;50.162;8.548;2024-01-15T07:15:27;51.60;;;15.40;;
24637;SDS011;12773;50.162;8.548;2024-01-15T07:18:15;52.95;;;13.88;;
24637;SDS011;12773;50.162;8.548;2024-01-15T07:21:02;58.40;;;15.38;;
24637;SDS011;12773;50.162;8.548;2024-01-15T07:23:50;51.02;;;15.15;;
24637;SDS011;12773;50.162;8.548;2024-01-15T07:26:37;49.60;;;15.78;;
24637;SDS011;12773;50.162;8.548;2024-01-15T07:29:25;55.12;;;15.53;;
24637;SDS011;12773;50.162;8.548;2024-01-15T07:32:13;53.78;;;15.85;;
24637;SDS011;12773;50.162;8.548;2024-01-15T07:35:00;53.85;;;14.55;;
24637;SDS011;12773;50.162;8.548;2024-01-15T07:37:48;50.80;;;15.32;;
24637;SDS011;12773;50.162;8.548;2024-01-15T07:40:37;45.85;;;13.60;;
24637;SDS011;12773;50.162;8.548;2024-01-15T07:43:24;44.98;;;13.28;;
24637;SDS011;12773;50.162;8.548;2024-01-15T07:46:13;55.40;;;19.75;;
24637;SDS011;12773;50.162;8.548;2024-01-15T07:49:01;53.00;;;16.37;;
24637;SDS011;12773;50.162;8.548;2024-01-15T07:51:49;48.10;;;13.72;;
24637;SDS011;12773;50.162;8.548;2024-01-15T07:54:37;43.48;;;14.30;;
24637;SDS011;12773;50.162;8.548;2024-01-15T07:57:24;47.13;;;14.00;;
24637;SDS011;12773;50.162;8.548;2024-01-15T08:00:17;48.98;;;14.58;;
24637;SDS011;12773;50.162;8.548;2024-01-15T08:03:06;45.52;;;14.35;;
24637;SDS011;12773;50.162;8.548;2024-01-15T08:05:56;45.90;;;13.32;;
24637;SDS011;12773;50.162;8.548;2024-01-15T08:08:47;48.50;;;14.28;;
24637;SDS011;12773;50.162;8.548;2024-01-15T08:11:34;52.27;;;15.38;;
24637;SDS011;12773;50.162;8.548;2024-01-15T08:14:25;48.70;;;14.70;;
24637;SDS011;12773;50.162;8.548;2024-01-15T08:17:12;57.17;;;15.58;;
24637;SDS011;12773;50.162;8.548;2024-01-15T08:20:01;50.75;;;14.60;;
24637;SDS011;12773;50.162;8.548;2024-01-15T08:22:51;50.75;;;14.85;;
24637;SDS011;12773;50.162;8.548;2024-01-15T08:25:38;50.90;;;15.48;;
24637;SDS011;12773;50.162;8.548;2024-01-15T08:28:27;51.37;;;14.70;;
24637;SDS011;12773;50.162;8.548;2024-01-15T08:31:15;48.30;;;14.90;;
24637;SDS011;12773;50.162;8.548;2024-01-15T08:34:03;45.95;;;15.63;;
24637;SDS011;12773;50.162;8.548;2024-01-15T08:36:50;55.75;;;16.02;;
24637;SDS011;12773;50.162;8.548;2024-01-15T08:39:38;42.88;;;14.13;;
24637;SDS011;12773;50.162;8.548;2024-01-15T08:42:26;46.25;;;15.08;;
24637;SDS011;12773;50.162;8.548;2024-01-15T08:45:13;56.10;;;16.25;;
24637;SDS011;12773;50.162;8.548;2024-01-15T08:48:00;52.33;;;15.43;;
24637;SDS011;12773;50.162;8.548;2024-01-15T08:50:48;44.83;;;15.25;;
24637;SDS011;12773;50.162;8.548;2024-01-15T08:53:37;48.28;;;15.68;;
24637;SDS011;12773;50.162;8.548;2024-01-15T08:56:25;51.92;;;15.18;;
24637;SDS011;12773;50.162;8.548;2024-01-15T08:59:13;50.33;;;15.45;;
24637;SDS011;12773;50.162;8.548;2024-01-15T09:02:00;54.27;;;15.65;;
24637;SDS011;12773;50.162;8.548;2024-01-15T09:04:48;41.48;;;15.15;;
24637;SDS011;12773;50.162;8.548;2024-01-15T09:07:35;42.33;;;14.63;;
24637;SDS011;12773;50.162;8.548;2024-01-15T09:10:23;49.53;;;14.30;;
24637;SDS011;12773;50.162;8.548;2024-01-15T09:13:10;50.92;;;16.05;;
24637;SDS011;12773;50.162;8.548;2024-01-15T09:15:58;48.83;;;15.35;;
24637;SDS011;12773;50.162;8.548;2024-01-15T09:18:46;42.58;;;14.80;;
24637;SDS011;12773;50.162;8.548;2024-01-15T09:21:33;42.78;;;14.13;;
24637;SDS011;12773;50.162;8.548;2024-01-15T09:24:21;42.08;;;13.80;;
24637;SDS011;12773;50.162;8.548;2024-01-15T09:27:10;38.20;;;12.47;;
24637;SDS011;12773;50.162;8.548;2024-01-15T09:29:58;39.98;;;13.03;;
24637;SDS011;12773;50.162;8.548;2024-01-15T09:32:46;42.95;;;13.53;;
24637;SDS011;12773;50.162;8.548;2024-01-15T09:35:34;41.80;;;13.45;;
24637;SDS011;12773;50.162;8.548;2024-01-15T09:38:22;41.88;;;13.80;;
24637;SDS011;12773;50.162;8.548;2024-01-15T09:41:10;44.35;;;13.60;;
24637;SDS011;12773;50.162;8.548;2024-01-15T09:43:58;36.83;;;12.13;;
24637;SDS011;12773;50.162;8.548;2024-01-15T09:46:45;38.95;;;13.00;;
24637;SDS011;12773;50.162;8.548;2024-01-15T09:49:35;36.40;;;12.18;;
24637;SDS011;12773;50.162;8.548;2024-01-15T09:52:24;35.30;;;11.93;;
24637;SDS011;12773;50.162;8.548;2024-01-15T09:55:12;37.15;;;12.50;;
24637;SDS011;12773;50.162;8.548;2024-01-15T09:58:01;29.48;;;10.95;;
24637;SDS011;12773;50.162;8.548;2024-01-15T10:00:50;32.42;;;11.88;;
24637;SDS011;12773;50.162;8.548;2024-01-15T10:03:38;32.17;;;11.90;;
24637;SDS011;12773;50.162;8.548;2024-01-15T10:06:27;36.70;;;12.03;;
24637;SDS011;12773;50.162;8.548;2024-01-15T10:09:15;33.85;;;11.43;;
24637;SDS011;12773;50.162;8.548;2024-01-15T10:12:04;36.08;;;12.18;;
24637;SDS011;12773;50.162;8.548;2024-01-15T10:14:52;33.90;;;12.65;;
24637;SDS011;12773;50.162;8.548;2024-01-15T10:17:39;31.80;;;11.15;;
24637;SDS011;12773;50.162;8.548;2024-01-15T10:20:27;28.62;;;11.55;;
24637;SDS011;12773;50.162;8.548;2024-01-15T10:23:15;44.83;;;13.43;;
24637;SDS011;12773;50.162;8.548;2024-01-15T10:26:03;35.52;;;12.43;;
24637;SDS011;12773;50.162;8.548;2024-01-15T10:28:51;32.20;;;11.25;;
24637;SDS011;12773;50.162;8.548;2024-01-15T10:31:38;36.15;;;12.90;;
24637;SDS011;12773;50.162;8.548;2024-01-15T10:34:25;33.63;;;12.10;;
24637;SDS011;12773;50.162;8.548;2024-01-15T10:37:13;36.08;;;13.88;;
24637;SDS011;12773;50.162;8.548;2024-01-15T10:40:05;35.60;;;12.63;;
24637;SDS011;12773;50.162;8.548;2024-01-15T10:42:53;29.02;;;11.85;;
24637;SDS011;12773;50.162;8.548;2024-01-15T10:45:40;33.88;;;12.53;;
24637;SDS011;12773;50.162;8.548;2024-01-15T10:48:28;30.05;;;11.50;;
24637;SDS011;12773;50.162;8.548;2024-01-15T10:51:17;33.30;;;11.70;;
24637;SDS011;12773;50.162;8.548;2024-01-15T10:54:08;41.45;;;13.20;;
24637;SDS011;12773;50.162;8.548;2024-01-15T10:56:56;27.48;;;11.05;;
24637;SDS011;12773;50.162;8.548;2024-01-15T10:59:44;28.85;;;11.03;;
24637;SDS011;12773;50.162;8.548;2024-01-15T11:02:32;26.33;;;10.58;;
24637;SDS011;12773;50.162;8.548;2024-01-15T11:05:25;33.05;;;11.12;;
24637;SDS011;12773;50.162;8.548;2024-01-15T11:08:13;25.82;;;10.50;;
24637;SDS011;12773;50.162;8.548;2024-01-15T11:11:05;29.63;;;10.98;;
24637;SDS011;12773;50.162;8.548;2024-01-15T11:13:53;34.38;;;12.07;;
24637;SDS011;12773;50.162;8.548;2024-01-15T11:16:54;25.97;;;9.50;;
24637;SDS011;12773;50.162;8.548;2024-01-15T11:19:45;32.53;;;10.58;;
24637;SDS011;12773;50.162;8.548;2024-01-15T11:25:35;26.23;;;9.65;;
24637;SDS011;12773;50.162;8.548;2024-01-15T11:28:46;25.37;;;10.85;;
24637;SDS011;12773;50.162;8.548;2024-01-15T11:31:16;24.15;;;9.45;;
24637;SDS011;12773;50.162;8.548;2024-01-15T11:34:03;29.57;;;10.45;;
24637;SDS011;12773;50.162;8.548;2024-01-15T11:39:43;27.52;;;10.58;;
24637;SDS011;12773;50.162;8.548;2024-01-15T11:42:32;26.12;;;10.20;;
24637;SDS011;12773;50.162;8.548;2024-01-15T11:45:19;23.38;;;9.25;;
24637;SDS011;12773;50.162;8.548;2024-01-15T11:51:03;23.70;;;10.03;;
24637;SDS011;12773;50.162;8.548;2024-01-15T11:53:51;26.15;;;10.68;;
24637;SDS011;12773;50.162;8.548;2024-01-15T11:56:42;27.50;;;10.32;;
24637;SDS011;12773;50.162;8.548;2024-01-15T11:59:29;28.67;;;10.25;;
24637;SDS011;12773;50.162;8.548;2024-01-15T12:02:16;25.52;;;10.78;;
24637;SDS011;12773;50.162;8.548;2024-01-15T12:05:04;22.42;;;9.73;;
24637;SDS011;12773;50.162;8.548;2024-01-15T12:07:53;25.12;;;9.60;;
24637;SDS011;12773;50.162;8.548;2024-01-15T12:10:40;35.23;;;10.65;;
24637;SDS011;12773;50.162;8.548;2024-01-15T12:13:28;22.27;;;8.85;;
24637;SDS011;12773;50.162;8.548;2024-01-15T12:16:16;29.40;;;11.00;;
24637;SDS011;12773;50.162;8.548;2024-01-15T12:19:03;18.52;;;7.62;;
24637;SDS011;12773;50.162;8.548;2024-01-15T12:21:52;22.87;;;8.50;;
24637;SDS011;12773;50.162;8.548;2024-01-15T12:24:39;17.15;;;7.28;;
24637;SDS011;12773;50.162;8.548;2024-01-15T12:27:27;15.78;;;7.05;;
24637;SDS011;12773;50.162;8.548;2024-01-15T12:30:15;17.00;;;6.40;;
24637;SDS011;12773;50.162;8.548;2024-01-15T12:33:06;16.65;;;6.50;;
24637;SDS011;12773;50.162;8.548;2024-01-15T12:35:55;15.93;;;6.75;;
24637;SDS011;12773;50.162;8.548;2024-01-15T12:38:43;13.40;;;6.05;;
24637;SDS011;12773;50.162;8.548;2024-01-15T12:41:32;14.18;;;6.08;;
24637;SDS011;12773;50.162;8.548;2024-01-15T12:44:21;14.98;;;6.20;;
24637;SDS011;12773;50.162;8.548;2024-01-15T12:47:09;13.85;;;5.60;;
24637;SDS011;12773;50.162;8.548;2024-01-15T12:49:57;14.38;;;5.72;;
24637;SDS011;12773;50.162;8.548;2024-01-15T12:52:47;15.08;;;6.30;;
24637;SDS011;12773;50.162;8.548;2024-01-15T12:55:35;13.38;;;5.37;;
24637;SDS011;12773;50.162;8.548;2024-01-15T12:58:23;13.93;;;5.55;;
24637;SDS011;12773;50.162;8.548;2024-01-15T13:01:10;13.58;;;5.25;;
24637;SDS011;12773;50.162;8.548;2024-01-15T13:03:58;14.23;;;4.90;;
24637;SDS011;12773;50.162;8.548;2024-01-15T13:06:46;12.55;;;4.58;;
24637;SDS011;12773;50.162;8.548;2024-01-15T13:09:35;14.60;;;4.75;;
24637;SDS011;12773;50.162;8.548;2024-01-15T13:12:23;12.18;;;5.00;;
24637;SDS011;12773;50.162;8.548;2024-01-15T13:15:10;14.75;;;5.35;;
24637;SDS011;12773;50.162;8.548;2024-01-15T13:17:59;9.50;;;4.60;;
24637;SDS011;12773;50.162;8.548;2024-01-15T13:20:47;13.08;;;4.80;;
24637;SDS011;12773;50.162;8.548;2024-01-15T13:23:34;14.63;;;5.30;;
24637;SDS011;12773;50.162;8.548;2024-01-15T13:26:22;19.02;;;7.05;;
24637;SDS011;12773;50.162;8.548;2024-01-15T13:29:10;10.70;;;4.67;;
24637;SDS011;12773;50.162;8.548;2024-01-15T13:31:58;14.45;;;4.92;;
24637;SDS011;12773;50.162;8.548;2024-01-15T13:34:46;13.35;;;5.25;;
24637;SDS011;12773;50.162;8.548;2024-01-15T13:37:34;11.28;;;4.05;;
24637;SDS011;12773;50.162;8.548;2024-01-15T13:40:22;7.78;;;3.80;;
24637;SDS011;12773;50.162;8.548;2024-01-15T13:43:11;13.53;;;4.25;;
24637;SDS011;12773;50.162;8.548;2024-01-15T13:46:00;9.05;;;4.72;;
24637;SDS011;12773;50.162;8.548;2024-01-15T13:48:49;10.53;;;4.40;;
24637;SDS011;12773;50.162;8.548;2024-01-15T13:51:37;12.55;;;4.20;;
24637;SDS011;12773;50.162;8.548;2024-01-15T13:54:26;12.07;;;4.28;;
24637;SDS011;12773;50.162;8.548;2024-01-15T13:57:15;9.20;;;4.00;;
24637;SDS011;12773;50.162;8.548;2024-01-15T14:00:04;6.65;;;3.12;;
24637;SDS011;12773;50.162;8.548;2024-01-15T14:02:53;8.68;;;3.25;;
24637;SDS011;12773;50.162;8.548;2024-01-15T14:05:41;7.60;;;3.45;;
24637;SDS011;12773;50.162;8.548;2024-01-15T14:08:29;8.85;;;3.67;;
24637;SDS011;12773;50.162;8.548;2024-01-15T14:11:16;11.38;;;3.75;;
24637;SDS011;12773;50.162;8.548;2024-01-15T14:14:04;8.40;;;3.87;;
24637;SDS011;12773;50.162;8.548;2024-01-15T14:16:53;11.80;;;3.45;;
24637;SDS011;12773;50.162;8.548;2024-01-15T14:19:40;10.13;;;3.55;;
24637;SDS011;12773;50.162;8.548;2024-01-15T14:22:29;9.25;;;3.60;;
24637;SDS011;12773;50.162;8.548;2024-01-15T14:25:17;10.20;;;3.58;;
24637;SDS011;12773;50.162;8.548;2024-01-15T14:28:04;14.80;;;3.70;;
24637;SDS011;12773;50.162;8.548;2024-01-15T14:30:52;13.13;;;3.72;;
24637;SDS011;12773;50.162;8.548;2024-01-15T14:33:42;10.28;;;3.92;;
24637;SDS011;12773;50.162;8.548;2024-01-15T14:36:29;11.63;;;3.60;;
24637;SDS011;12773;50.162;8.548;2024-01-15T14:39:16;7.92;;;3.10;;
24637;SDS011;12773;50.162;8.548;2024-01-15T14:42:06;10.88;;;3.33;;
24637;SDS011;12773;50.162;8.548;2024-01-15T14:44:54;8.75;;;3.10;;
24637;SDS011;12773;50.162;8.548;2024-01-15T14:47:41;8.90;;;2.80;;
24637;SDS011;12773;50.162;8.548;2024-01-15T14:50:29;10.90;;;3.20;;
24637;SDS011;12773;50.162;8.548;2024-01-15T14:53:17;10.70;;;2.67;;
24637;SDS011;12773;50.162;8.548;2024-01-15T14:56:05;10.10;;;3.00;;
24637;SDS011;12773;50.162;8.548;2024-01-15T14:58:53;12.20;;;3.33;;
24637;SDS011;12773;50.162;8.548;2024-01-15T15:01:40;13.93;;;3.87;;
24637;SDS011;12773;50.162;8.548;2024-01-15T15:04:28;7.67;;;3.30;;
24637;SDS011;12773;50.162;8.548;2024-01-15T15:07:16;8.88;;;3.42;;
24637;SDS011;12773;50.162;8.548;2024-01-15T15:10:03;10.03;;;4.05;;
24637;SDS011;12773;50.162;8.548;2024-01-15T15:12:51;28.75;;;8.45;;
24637;SDS011;12773;50.162;8.548;2024-01-15T15:15:38;12.15;;;4.00;;
24637;SDS011;12773;50.162;8.548;2024-01-15T15:18:26;17.57;;;4.53;;
24637;SDS011;12773;50.162;8.548;2024-01-15T15:21:15;11.48;;;4.10;;
24637;SDS011;12773;50.162;8.548;2024-01-15T15:24:02;13.45;;;4.50;;
24637;SDS011;12773;50.162;8.548;2024-01-15T15:26:50;12.85;;;4.08;;
24637;SDS011;12773;50.162;8.548;2024-01-15T15:29:39;12.60;;;4.28;;
24637;SDS011;12773;50.162;8.548;2024-01-15T15:32:26;12.53;;;3.95;;
24637;SDS011;12773;50.162;8.548;2024-01-15T15:35:14;11.40;;;3.98;;
24637;SDS011;12773;50.162;8.548;2024-01-15T15:38:02;12.33;;;3.50;;
24637;SDS011;12773;50.162;8.548;2024-01-15T15:40:49;9.18;;;3.77;;
24637;SDS011;12773;50.162;8.548;2024-01-15T15:43:37;8.88;;;3.52;;
24637;SDS011;12773;50.162;8.548;2024-01-15T15:46:24;7.22;;;3.47;;
24637;SDS011;12773;50.162;8.548;2024-01-15T15:49:12;10.55;;;3.72;;
24637;SDS011;12773;50.162;8.548;2024-01-15T15:52:00;11.97;;;4.08;;
24637;SDS011;12773;50.162;8.548;2024-01-15T15:54:48;12.28;;;3.72;;
24637;SDS011;12773;50.162;8.548;2024-01-15T15:57:36;11.22;;;3.85;;
24637;SDS011;12773;50.162;8.548;2024-01-15T16:00:24;10.35;;;3.33;;
24637;SDS011;12773;50.162;8.548;2024-01-15T16:03:11;16.60;;;4.12;;
24637;SDS011;12773;50.162;8.548;2024-01-15T16:05:59;11.55;;;3.98;;
24637;SDS011;12773;50.162;8.548;2024-01-15T16:08:47;11.22;;;3.50;;
24637;SDS011;12773;50.162;8.548;2024-01-15T16:11:34;13.43;;;3.50;;
24637;SDS011;12773;50.162;8.548;2024-01-15T16:14:22;5.62;;;2.80;;
24637;SDS011;12773;50.162;8.548;2024-01-15T16:17:09;9.30;;;3.45;;
24637;SDS011;12773;50.162;8.548;2024-01-15T16:19:58;7.95;;;3.27;;
24637;SDS011;12773;50.162;8.548;2024-01-15T16:22:47;7.78;;;3.20;;
24637;SDS011;12773;50.162;8.548;2024-01-15T16:25:37;7.37;;;3.40;;
24637;SDS011;12773;50.162;8.548;2024-01-15T16:28:25;8.13;;;3.15;;
24637;SDS011;12773;50.162;8.548;2024-01-15T16:31:13;8.53;;;2.87;;
24637;SDS011;12773;50.162;8.548;2024-01-15T16:34:00;9.18;;;3.02;;
24637;SDS011;12773;50.162;8.548;2024-01-15T16:36:49;9.50;;;3.10;;